sensor_id;sensor_type;location;lat;lon;timestamp;pressure;altitude;pressure_sealevel;temperature;humidity
73886;BME280;62217;44.504;11.312;2023-05-07T00:00:52;101124.69;;;21.86;65.00
73886;BME280;62217;44.504;11.312;2023-05-07T00:03:18;101122.00;;;21.86;65.31
73886;BME280;62217;44.504;11.312;2023-05-07T00:05:44;101125.72;;;21.85;65.49
73886;BME280;62217;44.504;11.312;2023-05-07T00:08:10;101125.91;;;21.84;65.23
73886;BME280;62217;44.504;11.312;2023-05-07T00:10:35;101127.59;;;21.85;65.05
73886;BME280;62217;44.504;11.312;2023-05-07T00:13:00;101130.94;;;21.87;64.81
73886;BME280;62217;44.504;11.312;2023-05-07T00:15:26;101125.53;;;21.87;64.78
73886;BME280;62217;44.504;11.312;2023-05-07T00:17:51;101124.09;;;21.91;65.21
73886;BME280;62217;44.504;11.312;2023-05-07T00:20:17;101123.88;;;21.92;64.76
73886;BME280;62217;44.504;11.312;2023-05-07T00:22:42;101126.81;;;21.91;65.13
73886;BME280;62217;44.504;11.312;2023-05-07T00:25:08;101125.53;;;21.87;65.23
73886;BME280;62217;44.504;11.312;2023-05-07T00:27:33;101123.63;;;21.87;65.07
73886;BME280;62217;44.504;11.312;2023-05-07T00:29:59;101120.13;;;21.87;65.32
73886;BME280;62217;44.504;11.312;2023-05-07T00:32:24;101125.31;;;21.88;65.23
73886;BME280;62217;44.504;11.312;2023-05-07T00:34:49;101131.75;;;21.87;64.96
73886;BME280;62217;44.504;11.312;2023-05-07T00:37:16;101126.56;;;21.86;65.03
73886;BME280;62217;44.504;11.312;2023-05-07T00:39:41;101133.00;;;21.85;64.92
73886;BME280;62217;44.504;11.312;2023-05-07T00:42:06;101132.81;;;21.86;65.44
73886;BME280;62217;44.504;11.312;2023-05-07T00:44:33;101125.31;;;21.88;64.69
73886;BME280;62217;44.504;11.312;2023-05-07T00:47:02;101122.19;;;21.85;65.10
73886;BME280;62217;44.504;11.312;2023-05-07T00:49:39;101126.97;;;21.89;65.22
73886;BME280;62217;44.504;11.312;2023-05-07T00:52:07;101122.63;;;21.88;64.76
73886;BME280;62217;44.504;11.312;2023-05-07T00:54:34;101120.13;;;21.87;65.19
73886;BME280;62217;44.504;11.312;2023-05-07T00:56:59;101126.34;;;21.87;64.62
73886;BME280;62217;44.504;11.312;2023-05-07T00:59:26;101125.72;;;21.85;65.22
73886;BME280;62217;44.504;11.312;2023-05-07T01:01:52;101130.94;;;21.87;64.84
73886;BME280;62217;44.504;11.312;2023-05-07T01:04:17;101134.28;;;21.89;65.03
73886;BME280;62217;44.504;11.312;2023-05-07T01:06:44;101135.50;;;21.86;64.87
73886;BME280;62217;44.504;11.312;2023-05-07T01:09:10;101126.75;;;21.84;65.27
73886;BME280;62217;44.504;11.312;2023-05-07T01:11:36;101134.03;;;21.84;65.21
73886;BME280;62217;44.504;11.312;2023-05-07T01:14:02;101138.44;;;21.85;65.18
73886;BME280;62217;44.504;11.312;2023-05-07T01:16:27;101136.34;;;21.87;65.24
73886;BME280;62217;44.504;11.312;2023-05-07T01:18:53;101137.16;;;21.87;64.67
73886;BME280;62217;44.504;11.312;2023-05-07T01:21:18;101131.75;;;21.87;64.83
73886;BME280;62217;44.504;11.312;2023-05-07T01:23:50;101125.06;;;21.83;65.26
73886;BME280;62217;44.504;11.312;2023-05-07T01:26:15;101123.00;;;21.85;64.75
73886;BME280;62217;44.504;11.312;2023-05-07T01:28:41;101125.91;;;21.84;64.86
73886;BME280;62217;44.504;11.312;2023-05-07T01:31:07;101128.63;;;21.84;65.04
73886;BME280;62217;44.504;11.312;2023-05-07T01:33:34;101133.38;;;21.82;64.95
73886;BME280;62217;44.504;11.312;2023-05-07T01:36:01;101134.25;;;21.82;64.66
73886;BME280;62217;44.504;11.312;2023-05-07T01:38:31;101138.78;;;21.82;64.94
73886;BME280;62217;44.504;11.312;2023-05-07T01:40:57;101135.22;;;21.81;64.66
73886;BME280;62217;44.504;11.312;2023-05-07T01:43:23;101131.31;;;21.84;64.92
73886;BME280;62217;44.504;11.312;2023-05-07T01:45:49;101140.06;;;21.86;64.61
73886;BME280;62217;44.504;11.312;2023-05-07T01:48:15;101138.78;;;21.82;64.84
73886;BME280;62217;44.504;11.312;2023-05-07T01:50:41;101137.94;;;21.81;64.65
73886;BME280;62217;44.504;11.312;2023-05-07T01:53:07;101136.06;;;21.82;64.83
73886;BME280;62217;44.504;11.312;2023-05-07T01:55:33;101132.53;;;21.81;64.70
73886;BME280;62217;44.504;11.312;2023-05-07T01:57:58;101133.38;;;21.82;64.80
73886;BME280;62217;44.504;11.312;2023-05-07T02:00:24;101132.53;;;21.81;64.91
73886;BME280;62217;44.504;11.312;2023-05-07T02:02:50;101139.16;;;21.79;65.19
73886;BME280;62217;44.504;11.312;2023-05-07T02:05:16;101140.00;;;21.79;65.08
73886;BME280;62217;44.504;11.312;2023-05-07T02:07:42;101136.28;;;21.80;65.06
73886;BME280;62217;44.504;11.312;2023-05-07T02:10:07;101133.75;;;21.79;64.93
73886;BME280;62217;44.504;11.312;2023-05-07T02:12:33;101140.22;;;21.78;65.24
73886;BME280;62217;44.504;11.312;2023-05-07T02:14:58;101144.56;;;21.79;64.68
73886;BME280;62217;44.504;11.312;2023-05-07T02:17:24;101139.38;;;21.77;64.93
73886;BME280;62217;44.504;11.312;2023-05-07T02:19:49;101138.53;;;21.77;64.87
73886;BME280;62217;44.504;11.312;2023-05-07T02:22:14;101129.41;;;21.78;65.13
73886;BME280;62217;44.504;11.312;2023-05-07T02:24:40;101138.53;;;21.77;65.16
73886;BME280;62217;44.504;11.312;2023-05-07T02:27:06;101139.38;;;21.77;64.66
73886;BME280;62217;44.504;11.312;2023-05-07T02:29:31;101135.81;;;21.77;65.12
73886;BME280;62217;44.504;11.312;2023-05-07T02:31:57;101131.47;;;21.76;64.90
73886;BME280;62217;44.504;11.312;2023-05-07T02:34:22;101138.53;;;21.77;64.70
73886;BME280;62217;44.504;11.312;2023-05-07T02:36:47;101133.97;;;21.77;64.47
73886;BME280;62217;44.504;11.312;2023-05-07T02:39:13;101128.56;;;21.77;64.56
73886;BME280;62217;44.504;11.312;2023-05-07T02:41:40;101134.81;;;21.78;64.74
73886;BME280;62217;44.504;11.312;2023-05-07T02:44:06;101130.41;;;21.77;64.38
73886;BME280;62217;44.504;11.312;2023-05-07T02:46:31;101138.53;;;21.77;64.60
73886;BME280;62217;44.504;11.312;2023-05-07T02:48:56;101134.16;;;21.76;64.51
73886;BME280;62217;44.504;11.312;2023-05-07T02:51:22;101134.16;;;21.76;64.35
73886;BME280;62217;44.504;11.312;2023-05-07T02:53:48;101135.19;;;21.75;64.88
73886;BME280;62217;44.504;11.312;2023-05-07T02:56:14;101126.06;;;21.76;64.70
73886;BME280;62217;44.504;11.312;2023-05-07T02:58:40;101134.16;;;21.76;64.63
73886;BME280;62217;44.504;11.312;2023-05-07T03:01:07;101128.75;;;21.76;64.84
73886;BME280;62217;44.504;11.312;2023-05-07T03:03:33;101126.06;;;21.76;64.81
73886;BME280;62217;44.504;11.312;2023-05-07T03:05:58;101134.38;;;21.74;64.64
73886;BME280;62217;44.504;11.312;2023-05-07T03:08:24;101128.97;;;21.74;64.65
73886;BME280;62217;44.504;11.312;2023-05-07T03:10:49;101125.41;;;21.74;64.34
73886;BME280;62217;44.504;11.312;2023-05-07T03:13:15;101134.56;;;21.73;64.58
73886;BME280;62217;44.504;11.312;2023-05-07T03:15:40;101122.91;;;21.72;64.41
73886;BME280;62217;44.504;11.312;2023-05-07T03:18:06;101133.91;;;21.71;64.32
73886;BME280;62217;44.504;11.312;2023-05-07T03:20:31;101139.31;;;21.71;64.20
73886;BME280;62217;44.504;11.312;2023-05-07T03:22:57;101141.19;;;21.70;64.45
73886;BME280;62217;44.504;11.312;2023-05-07T03:25:22;101137.66;;;21.70;63.98
73886;BME280;62217;44.504;11.312;2023-05-07T03:27:48;101138.69;;;21.69;64.53
73886;BME280;62217;44.504;11.312;2023-05-07T03:30:13;101142.22;;;21.69;63.97
73886;BME280;62217;44.504;11.312;2023-05-07T03:32:38;101143.25;;;21.68;63.94
73886;BME280;62217;44.504;11.312;2023-05-07T03:35:04;101149.50;;;21.69;64.04
73886;BME280;62217;44.504;11.312;2023-05-07T03:37:30;101146.16;;;21.67;63.98
73886;BME280;62217;44.504;11.312;2023-05-07T03:39:55;101151.56;;;21.67;64.13
73886;BME280;62217;44.504;11.312;2023-05-07T03:42:21;101148.88;;;21.67;63.92
73886;BME280;62217;44.504;11.312;2023-05-07T03:44:46;101156.97;;;21.67;63.90
73886;BME280;62217;44.504;11.312;2023-05-07T03:47:11;101162.38;;;21.67;63.80
73886;BME280;62217;44.504;11.312;2023-05-07T03:49:38;101160.72;;;21.66;63.74
73886;BME280;62217;44.504;11.312;2023-05-07T03:52:04;101163.44;;;21.66;64.03
73886;BME280;62217;44.504;11.312;2023-05-07T03:54:30;101155.50;;;21.64;63.61
73886;BME280;62217;44.504;11.312;2023-05-07T03:56:55;101165.28;;;21.65;63.71
73886;BME280;62217;44.504;11.312;2023-05-07T03:59:21;101168.22;;;21.63;64.10
73886;BME280;62217;44.504;11.312;2023-05-07T04:01:47;101165.50;;;21.63;63.99
73886;BME280;62217;44.504;11.312;2023-05-07T04:04:13;101172.56;;;21.64;63.60
73886;BME280;62217;44.504;11.312;2023-05-07T04:06:39;101176.31;;;21.63;63.44
73886;BME280;62217;44.504;11.312;2023-05-07T04:09:04;101171.94;;;21.62;63.55
73886;BME280;62217;44.504;11.312;2023-05-07T04:11:30;101183.59;;;21.63;63.44
73886;BME280;62217;44.504;11.312;2023-05-07T04:13:55;101185.25;;;21.64;63.92
73886;BME280;62217;44.504;11.312;2023-05-07T04:16:20;101182.75;;;21.62;63.27
73886;BME280;62217;44.504;11.312;2023-05-07T04:18:46;101186.47;;;21.61;63.35
73886;BME280;62217;44.504;11.312;2023-05-07T04:21:19;101185.66;;;21.61;63.18
73886;BME280;62217;44.504;11.312;2023-05-07T04:23:46;101185.84;;;21.59;63.58
73886;BME280;62217;44.504;11.312;2023-05-07T04:26:11;101192.94;;;21.60;63.54
73886;BME280;62217;44.504;11.312;2023-05-07T04:28:37;101186.47;;;21.61;63.77
73886;BME280;62217;44.504;11.312;2023-05-07T04:31:03;101194.56;;;21.61;63.34
73886;BME280;62217;44.504;11.312;2023-05-07T04:33:28;101192.09;;;21.60;63.20
73886;BME280;62217;44.504;11.312;2023-05-07T04:35:54;101183.13;;;21.59;63.47
73886;BME280;62217;44.504;11.312;2023-05-07T04:38:19;101188.53;;;21.59;63.34
73886;BME280;62217;44.504;11.312;2023-05-07T04:40:45;101195.84;;;21.59;63.44
73886;BME280;62217;44.504;11.312;2023-05-07T04:43:12;101211.22;;;21.58;63.26
73886;BME280;62217;44.504;11.312;2023-05-07T04:45:38;101212.22;;;21.57;63.00
73886;BME280;62217;44.504;11.312;2023-05-07T04:48:06;101214.94;;;21.57;63.08
73886;BME280;62217;44.504;11.312;2023-05-07T04:50:32;101211.41;;;21.57;63.19
73886;BME280;62217;44.504;11.312;2023-05-07T04:52:58;101211.41;;;21.57;63.49
73886;BME280;62217;44.504;11.312;2023-05-07T04:55:23;101214.13;;;21.57;63.19
73886;BME280;62217;44.504;11.312;2023-05-07T04:57:49;101214.13;;;21.57;63.58
73886;BME280;62217;44.504;11.312;2023-05-07T05:00:15;101219.31;;;21.58;63.45
73886;BME280;62217;44.504;11.312;2023-05-07T05:02:41;101221.41;;;21.56;63.59
73886;BME280;62217;44.504;11.312;2023-05-07T05:05:07;101218.69;;;21.56;63.30
73886;BME280;62217;44.504;11.312;2023-05-07T05:07:33;101225.75;;;21.57;63.33
73886;BME280;62217;44.504;11.312;2023-05-07T05:09:58;101231.16;;;21.57;63.10
73886;BME280;62217;44.504;11.312;2023-05-07T05:12:24;101234.06;;;21.56;63.34
73886;BME280;62217;44.504;11.312;2023-05-07T05:14:49;101234.91;;;21.56;63.14
73886;BME280;62217;44.504;11.312;2023-05-07T05:17:15;101234.91;;;21.56;63.09
73886;BME280;62217;44.504;11.312;2023-05-07T05:19:40;101238.63;;;21.55;63.17
73886;BME280;62217;44.504;11.312;2023-05-07T05:22:06;101241.16;;;21.57;63.39
73886;BME280;62217;44.504;11.312;2023-05-07T05:24:31;101233.22;;;21.55;62.99
73886;BME280;62217;44.504;11.312;2023-05-07T05:26:57;101238.63;;;21.55;63.52
73886;BME280;62217;44.504;11.312;2023-05-07T05:29:23;101240.53;;;21.55;63.18
73886;BME280;62217;44.504;11.312;2023-05-07T05:31:48;101245.94;;;21.55;63.27
73886;BME280;62217;44.504;11.312;2023-05-07T05:34:14;101250.28;;;21.56;63.06
73886;BME280;62217;44.504;11.312;2023-05-07T05:36:39;101246.75;;;21.55;63.36
73886;BME280;62217;44.504;11.312;2023-05-07T05:39:05;101243.88;;;21.57;63.10
73886;BME280;62217;44.504;11.312;2023-05-07T05:41:31;101243.03;;;21.56;63.57
73886;BME280;62217;44.504;11.312;2023-05-07T05:43:56;101239.69;;;21.54;63.55
73886;BME280;62217;44.504;11.312;2023-05-07T05:46:21;101234.91;;;21.56;63.61
73886;BME280;62217;44.504;11.312;2023-05-07T05:48:47;101240.97;;;21.58;63.72
73886;BME280;62217;44.504;11.312;2023-05-07T05:51:12;101234.72;;;21.58;63.91
73886;BME280;62217;44.504;11.312;2023-05-07T05:53:38;101237.22;;;21.59;64.31
73886;BME280;62217;44.504;11.312;2023-05-07T05:56:04;101239.53;;;21.62;64.62
73886;BME280;62217;44.504;11.312;2023-05-07T05:58:29;101233.91;;;21.64;63.99
73886;BME280;62217;44.504;11.312;2023-05-07T06:00:55;101234.56;;;21.66;64.20
73886;BME280;62217;44.504;11.312;2023-05-07T06:03:21;101228.97;;;21.68;64.37
73886;BME280;62217;44.504;11.312;2023-05-07T06:05:47;101228.78;;;21.69;63.94
73886;BME280;62217;44.504;11.312;2023-05-07T06:08:13;101232.31;;;21.70;64.01
73886;BME280;62217;44.504;11.312;2023-05-07T06:10:38;101235.41;;;21.67;64.14
73886;BME280;62217;44.504;11.312;2023-05-07T06:13:04;101233.34;;;21.69;64.04
73886;BME280;62217;44.504;11.312;2023-05-07T06:15:29;101233.97;;;21.71;64.03
73886;BME280;62217;44.504;11.312;2023-05-07T06:17:55;101236.03;;;21.69;63.88
73886;BME280;62217;44.504;11.312;2023-05-07T06:20:22;101233.13;;;21.70;64.41
73886;BME280;62217;44.504;11.312;2023-05-07T06:22:48;101231.91;;;21.73;64.07
73886;BME280;62217;44.504;11.312;2023-05-07T06:25:13;101233.81;;;21.72;64.17
73886;BME280;62217;44.504;11.312;2023-05-07T06:27:39;101236.09;;;21.75;64.00
73886;BME280;62217;44.504;11.312;2023-05-07T06:30:05;101228.19;;;21.74;64.40
73886;BME280;62217;44.504;11.312;2023-05-07T06:32:31;101232.56;;;21.75;64.72
73886;BME280;62217;44.504;11.312;2023-05-07T06:34:56;101235.72;;;21.78;64.42
73886;BME280;62217;44.504;11.312;2023-05-07T06:37:22;101238.59;;;21.77;64.53
73886;BME280;62217;44.504;11.312;2023-05-07T06:39:47;101242.78;;;21.79;64.51
73886;BME280;62217;44.504;11.312;2023-05-07T06:42:13;101235.72;;;21.78;64.83
73886;BME280;62217;44.504;11.312;2023-05-07T06:44:38;101237.38;;;21.79;64.23
73886;BME280;62217;44.504;11.312;2023-05-07T06:47:04;101251.53;;;21.81;64.33
73886;BME280;62217;44.504;11.312;2023-05-07T06:49:30;101252.75;;;21.79;64.88
73886;BME280;62217;44.504;11.312;2023-05-07T06:51:56;101247.19;;;21.80;64.75
73886;BME280;62217;44.504;11.312;2023-05-07T06:54:22;101251.09;;;21.78;64.55
73886;BME280;62217;44.504;11.312;2023-05-07T06:56:48;101252.59;;;21.80;64.54
73886;BME280;62217;44.504;11.312;2023-05-07T06:59:13;101260.88;;;21.79;64.74
73886;BME280;62217;44.504;11.312;2023-05-07T07:01:38;101256.50;;;21.78;64.95
73886;BME280;62217;44.504;11.312;2023-05-07T07:04:04;101252.75;;;21.79;64.51
73886;BME280;62217;44.504;11.312;2023-05-07T07:06:29;101251.09;;;21.78;64.37
73886;BME280;62217;44.504;11.312;2023-05-07T07:08:57;101258.78;;;21.74;64.06
73886;BME280;62217;44.504;11.312;2023-05-07T07:11:22;101256.09;;;21.74;64.31
73886;BME280;62217;44.504;11.312;2023-05-07T07:13:48;101258.59;;;21.76;63.91
73886;BME280;62217;44.504;11.312;2023-05-07T07:16:13;101262.94;;;21.77;63.92
73886;BME280;62217;44.504;11.312;2023-05-07T07:18:38;101258.38;;;21.77;64.01
73886;BME280;62217;44.504;11.312;2023-05-07T07:21:04;101260.25;;;21.77;64.18
73886;BME280;62217;44.504;11.312;2023-05-07T07:23:30;101257.34;;;21.78;63.53
73886;BME280;62217;44.504;11.312;2023-05-07T07:25:56;101258.16;;;21.79;63.71
73886;BME280;62217;44.504;11.312;2023-05-07T07:28:21;101262.78;;;21.78;63.93
73886;BME280;62217;44.504;11.312;2023-05-07T07:30:47;101260.88;;;21.79;63.75
73886;BME280;62217;44.504;11.312;2023-05-07T07:33:12;101257.34;;;21.78;63.77
73886;BME280;62217;44.504;11.312;2023-05-07T07:35:38;101256.94;;;21.81;63.85
73886;BME280;62217;44.504;11.312;2023-05-07T07:38:03;101256.09;;;21.81;64.19
73886;BME280;62217;44.504;11.312;2023-05-07T07:40:29;101244.28;;;21.82;63.73
73886;BME280;62217;44.504;11.312;2023-05-07T07:42:54;101244.28;;;21.82;63.75
73886;BME280;62217;44.504;11.312;2023-05-07T07:45:20;101237.88;;;21.83;64.14
73886;BME280;62217;44.504;11.312;2023-05-07T07:47:45;101240.56;;;21.83;63.87
73886;BME280;62217;44.504;11.312;2023-05-07T07:50:11;101238.69;;;21.83;63.71
73886;BME280;62217;44.504;11.312;2023-05-07T07:52:37;101242.44;;;21.82;63.68
73886;BME280;62217;44.504;11.312;2023-05-07T07:55:02;101239.31;;;21.85;63.86
73886;BME280;62217;44.504;11.312;2023-05-07T07:57:28;101247.66;;;21.84;63.70
73886;BME280;62217;44.504;11.312;2023-05-07T07:59:54;101242.44;;;21.82;63.79
73886;BME280;62217;44.504;11.312;2023-05-07T08:02:19;101245.78;;;21.84;63.78
73886;BME280;62217;44.504;11.312;2023-05-07T08:04:45;101246.41;;;21.86;64.05
73886;BME280;62217;44.504;11.312;2023-05-07T08:07:10;101246.00;;;21.83;63.82
73886;BME280;62217;44.504;11.312;2023-05-07T08:09:37;101239.97;;;21.87;64.13
73886;BME280;62217;44.504;11.312;2023-05-07T08:12:03;101241.00;;;21.86;63.90
73886;BME280;62217;44.504;11.312;2023-05-07T08:14:29;101248.28;;;21.86;64.42
73886;BME280;62217;44.504;11.312;2023-05-07T08:16:55;101248.28;;;21.86;64.05
73886;BME280;62217;44.504;11.312;2023-05-07T08:19:20;101243.72;;;21.86;64.32
73886;BME280;62217;44.504;11.312;2023-05-07T08:21:47;101246.22;;;21.88;64.28
73886;BME280;62217;44.504;11.312;2023-05-07T08:24:13;101243.50;;;21.88;64.28
73886;BME280;62217;44.504;11.312;2023-05-07T08:26:39;101240.81;;;21.88;64.53
73886;BME280;62217;44.504;11.312;2023-05-07T08:29:05;101251.63;;;21.88;63.92
73886;BME280;62217;44.504;11.312;2023-05-07T08:31:30;101257.88;;;21.88;64.01
73886;BME280;62217;44.504;11.312;2023-05-07T08:33:57;101254.97;;;21.90;64.24
73886;BME280;62217;44.504;11.312;2023-05-07T08:36:22;101252.91;;;21.92;63.87
73886;BME280;62217;44.504;11.312;2023-05-07T08:38:48;101251.41;;;21.89;63.93
73886;BME280;62217;44.504;11.312;2023-05-07T08:41:14;101266.44;;;21.92;64.18
73886;BME280;62217;44.504;11.312;2023-05-07T08:43:41;101256.44;;;21.92;64.26
73886;BME280;62217;44.504;11.312;2023-05-07T08:46:08;101257.50;;;21.91;63.73
73886;BME280;62217;44.504;11.312;2023-05-07T08:48:35;101251.03;;;21.92;64.09
73886;BME280;62217;44.504;11.312;2023-05-07T08:51:01;101247.50;;;21.92;63.82
73886;BME280;62217;44.504;11.312;2023-05-07T08:53:26;101255.59;;;21.92;64.13
73886;BME280;62217;44.504;11.312;2023-05-07T08:55:52;101251.88;;;21.93;64.03
73886;BME280;62217;44.504;11.312;2023-05-07T08:58:18;101253.75;;;21.92;64.06
73886;BME280;62217;44.504;11.312;2023-05-07T09:00:43;101249.19;;;21.93;64.19
73886;BME280;62217;44.504;11.312;2023-05-07T09:03:09;101242.94;;;21.92;64.04
73886;BME280;62217;44.504;11.312;2023-05-07T09:05:37;101233.97;;;21.92;63.86
73886;BME280;62217;44.504;11.312;2023-05-07T09:08:03;101248.34;;;21.92;64.07
73886;BME280;62217;44.504;11.312;2023-05-07T09:10:29;101235.00;;;21.91;64.43
73886;BME280;62217;44.504;11.312;2023-05-07T09:12:55;101232.94;;;21.93;64.05
73886;BME280;62217;44.504;11.312;2023-05-07T09:15:20;101238.34;;;21.93;63.90
73886;BME280;62217;44.504;11.312;2023-05-07T09:17:46;101227.53;;;21.93;64.19
73886;BME280;62217;44.504;11.312;2023-05-07T09:20:11;101234.59;;;21.94;64.21
73886;BME280;62217;44.504;11.312;2023-05-07T09:22:37;101229.19;;;21.94;64.08
73886;BME280;62217;44.504;11.312;2023-05-07T09:25:04;101230.03;;;21.94;64.46
73886;BME280;62217;44.504;11.312;2023-05-07T09:27:30;101225.47;;;21.95;64.10
73886;BME280;62217;44.504;11.312;2023-05-07T09:29:55;101228.19;;;21.95;64.41
73886;BME280;62217;44.504;11.312;2023-05-07T09:32:21;101228.19;;;21.95;64.24
73886;BME280;62217;44.504;11.312;2023-05-07T09:34:46;101227.13;;;21.96;64.35
73886;BME280;62217;44.504;11.312;2023-05-07T09:37:13;101228.19;;;21.95;64.49
73886;BME280;62217;44.504;11.312;2023-05-07T09:39:43;101223.59;;;21.95;63.90
73886;BME280;62217;44.504;11.312;2023-05-07T09:42:09;101223.59;;;21.95;64.37
73886;BME280;62217;44.504;11.312;2023-05-07T09:44:35;101221.72;;;21.96;64.23
73886;BME280;62217;44.504;11.312;2023-05-07T09:47:04;101231.72;;;21.95;64.35
73886;BME280;62217;44.504;11.312;2023-05-07T09:49:34;101226.31;;;21.95;64.26
73886;BME280;62217;44.504;11.312;2023-05-07T09:52:01;101227.13;;;21.96;64.25
73886;BME280;62217;44.504;11.312;2023-05-07T09:54:27;101223.41;;;21.97;64.18
73886;BME280;62217;44.504;11.312;2023-05-07T09:56:56;101221.53;;;21.97;63.86
73886;BME280;62217;44.504;11.312;2023-05-07T09:59:22;101217.78;;;21.98;63.86
73886;BME280;62217;44.504;11.312;2023-05-07T10:01:48;101212.56;;;21.97;63.73
73886;BME280;62217;44.504;11.312;2023-05-07T10:04:14;101222.56;;;21.96;64.12
73886;BME280;62217;44.504;11.312;2023-05-07T10:06:40;101208.59;;;21.93;64.09
73886;BME280;62217;44.504;11.312;2023-05-07T10:09:06;101205.88;;;21.93;64.18
73886;BME280;62217;44.504;11.312;2023-05-07T10:11:33;101206.09;;;21.91;63.75
73886;BME280;62217;44.504;11.312;2023-05-07T10:14:04;101206.53;;;21.95;63.98
73886;BME280;62217;44.504;11.312;2023-05-07T10:16:35;101206.53;;;21.95;64.09
73886;BME280;62217;44.504;11.312;2023-05-07T10:19:05;101214.66;;;21.95;64.09
73886;BME280;62217;44.504;11.312;2023-05-07T10:21:35;101204.66;;;21.95;64.29
73886;BME280;62217;44.504;11.312;2023-05-07T10:24:19;101205.31;;;21.97;64.24
73886;BME280;62217;44.504;11.312;2023-05-07T10:26:49;101201.38;;;22.00;63.70
73886;BME280;62217;44.504;11.312;2023-05-07T10:29:25;101201.16;;;22.01;64.02
73886;BME280;62217;44.504;11.312;2023-05-07T10:32:11;101200.97;;;22.03;63.84
73886;BME280;62217;44.504;11.312;2023-05-07T10:34:43;101201.81;;;22.03;63.41
73886;BME280;62217;44.504;11.312;2023-05-07T10:37:10;101205.13;;;22.05;64.04
73886;BME280;62217;44.504;11.312;2023-05-07T10:39:36;101206.63;;;22.08;63.98
73886;BME280;62217;44.504;11.312;2023-05-07T10:42:13;101196.59;;;22.08;64.01
73886;BME280;62217;44.504;11.312;2023-05-07T10:44:38;101195.16;;;22.06;64.08
73886;BME280;62217;44.504;11.312;2023-05-07T10:49:31;101196.44;;;22.10;63.71
73886;BME280;62217;44.504;11.312;2023-05-07T10:52:15;101193.31;;;22.13;64.01
73886;BME280;62217;44.504;11.312;2023-05-07T10:54:42;101186.03;;;22.13;63.80
73886;BME280;62217;44.504;11.312;2023-05-07T10:57:36;101194.56;;;22.10;64.62
73886;BME280;62217;44.504;11.312;2023-05-07T11:00:03;101191.19;;;22.08;63.82
73886;BME280;62217;44.504;11.312;2023-05-07T11:05:26;101188.75;;;22.13;64.29
73886;BME280;62217;44.504;11.312;2023-05-07T11:07:59;101189.97;;;22.11;64.34
73886;BME280;62217;44.504;11.312;2023-05-07T11:10:51;101183.13;;;22.15;64.31
73886;BME280;62217;44.504;11.312;2023-05-07T11:13:17;101181.03;;;22.17;64.08
73886;BME280;62217;44.504;11.312;2023-05-07T11:15:45;101180.03;;;22.18;64.42
73886;BME280;62217;44.504;11.312;2023-05-07T11:18:12;101176.06;;;22.14;64.77
73886;BME280;62217;44.504;11.312;2023-05-07T11:20:58;101169.63;;;22.21;64.89
73886;BME280;62217;44.504;11.312;2023-05-07T11:26:06;101161.13;;;22.24;65.41
73886;BME280;62217;44.504;11.312;2023-05-07T11:28:41;101158.19;;;22.26;65.90
73886;BME280;62217;44.504;11.312;2023-05-07T11:31:07;101157.81;;;22.29;65.48
73886;BME280;62217;44.504;11.312;2023-05-07T11:33:33;101145.75;;;22.31;66.29
73886;BME280;62217;44.504;11.312;2023-05-07T11:36:00;101152.84;;;22.39;67.36
73886;BME280;62217;44.504;11.312;2023-05-07T11:38:25;101148.06;;;22.41;66.95
73886;BME280;62217;44.504;11.312;2023-05-07T11:40:59;101156.41;;;22.39;67.40
73886;BME280;62217;44.504;11.312;2023-05-07T11:43:29;101160.16;;;22.45;66.78
73886;BME280;62217;44.504;11.312;2023-05-07T11:45:55;101161.22;;;22.44;67.18
73886;BME280;62217;44.504;11.312;2023-05-07T11:48:29;101150.38;;;22.44;66.84
73886;BME280;62217;44.504;11.312;2023-05-07T11:53:27;101161.59;;;22.41;67.26
73886;BME280;62217;44.504;11.312;2023-05-07T11:55:55;101160.16;;;22.45;67.60
73886;BME280;62217;44.504;11.312;2023-05-07T11:58:22;101161.59;;;22.41;67.25
73886;BME280;62217;44.504;11.312;2023-05-07T12:00:57;101158.47;;;22.37;67.41
73886;BME280;62217;44.504;11.312;2023-05-07T12:03:22;101154.91;;;22.37;67.51
73886;BME280;62217;44.504;11.312;2023-05-07T12:05:48;101155.56;;;22.39;67.06
73886;BME280;62217;44.504;11.312;2023-05-07T12:08:14;101157.41;;;22.38;67.00
73886;BME280;62217;44.504;11.312;2023-05-07T12:10:41;101155.34;;;22.40;67.33
73886;BME280;62217;44.504;11.312;2023-05-07T12:13:27;101154.94;;;22.44;66.99
73886;BME280;62217;44.504;11.312;2023-05-07T12:15:54;101151.00;;;22.46;67.19
73886;BME280;62217;44.504;11.312;2023-05-07T12:18:20;101143.50;;;22.48;67.06
73886;BME280;62217;44.504;11.312;2023-05-07T12:20:46;101155.38;;;22.47;67.08
73886;BME280;62217;44.504;11.312;2023-05-07T12:23:12;101148.72;;;22.50;67.07
73886;BME280;62217;44.504;11.312;2023-05-07T12:25:39;101148.72;;;22.50;67.31
73886;BME280;62217;44.504;11.312;2023-05-07T12:28:05;101149.94;;;22.47;67.22
73886;BME280;62217;44.504;11.312;2023-05-07T12:30:40;101140.38;;;22.51;67.21
73886;BME280;62217;44.504;11.312;2023-05-07T12:33:06;101141.66;;;22.49;66.99
73886;BME280;62217;44.504;11.312;2023-05-07T12:35:37;101139.97;;;22.48;67.16
73886;BME280;62217;44.504;11.312;2023-05-07T12:38:17;101137.25;;;22.48;67.41
73886;BME280;62217;44.504;11.312;2023-05-07T12:40:43;101146.84;;;22.50;67.07
73886;BME280;62217;44.504;11.312;2023-05-07T12:43:21;101143.94;;;22.52;67.27
73886;BME280;62217;44.504;11.312;2023-05-07T12:45:50;101138.72;;;22.50;67.22
73886;BME280;62217;44.504;11.312;2023-05-07T12:48:17;101145.00;;;22.51;67.59